Time;durP1;ratioP1;P1;durP2;ratioP2;P2;SDS_P1;SDS_P2;PMS_P1;PMS_P2;Temp;Humidity;BMP_temperature;BMP_pressure;BME280_temperature;BME280_humidity;BME280_pressure;Samples;Min_cycle;Max_cycle;Signal;HPM_P1;HPM_P2
2022/07/07 00:01:50;;;;;;;5.40;1.70;;;;;;;8.26;100.00;97034.25;10412894;28;20220;-72
2022/07/07 00:06:50;;;;;;;2.87;1.40;;;;;;;8.32;100.00;97023.25;10413202;28;20331;-72
2022/07/07 00:11:51;;;;;;;2.37;1.83;;;;;;;8.28;100.00;97016.66;10412637;28;20199;-72
2022/07/07 00:16:51;;;;;;;7.00;1.63;;;;;;;8.34;100.00;97010.06;10412722;28;20698;-72
2022/07/07 00:21:52;;;;;;;3.80;1.37;;;;;;;8.30;100.00;97011.28;10412412;28;20198;-72
2022/07/07 00:26:53;;;;;;;2.40;1.50;;;;;;;8.25;100.00;97008.28;10412496;28;20209;-72
2022/07/07 00:31:53;;;;;;;5.10;1.67;;;;;;;8.19;100.00;97000.03;10411923;28;20203;-71
2022/07/07 00:36:53;;;;;;;6.07;1.60;;;;;;;8.15;100.00;97005.66;10410649;28;20195;-72
2022/07/07 00:41:54;;;;;;;5.37;1.50;;;;;;;8.06;100.00;96994.22;10408564;28;20199;-72
2022/07/07 00:46:54;;;;;;;5.60;1.87;;;;;;;8.10;100.00;96992.16;10411344;28;20759;-72
2022/07/07 00:51:55;;;;;;;4.10;2.23;;;;;;;8.02;100.00;96990.22;10411662;28;20965;-72
2022/07/07 00:56:55;;;;;;;5.27;1.67;;;;;;;8.06;100.00;96989.00;10411068;28;20272;-72
2022/07/07 01:01:57;;;;;;;2.03;1.57;;;;;;;8.04;100.00;96989.16;10409826;28;20240;-72
2022/07/07 01:06:57;;;;;;;2.30;1.63;;;;;;;7.99;100.00;96987.88;10393156;28;20213;-72
2022/07/07 01:11:58;;;;;;;8.03;2.30;;;;;;;8.00;100.00;96992.16;10392859;28;20193;-72
2022/07/07 01:16:58;;;;;;;3.47;1.20;;;;;;;7.97;100.00;96982.00;10410498;28;20673;-72
2022/07/07 01:22:06;;;;;;;4.73;1.90;;;;;;;7.93;100.00;96984.03;10410318;28;20188;-72
2022/07/07 01:27:14;;;;;;;3.83;1.60;;;;;;;7.94;100.00;96971.81;10392728;28;20228;-72
2022/07/07 01:32:15;;;;;;;2.73;1.70;;;;;;;7.90;100.00;96971.28;10392438;28;20607;-72
2022/07/07 01:37:17;;;;;;;4.47;1.87;;;;;;;7.84;100.00;96962.19;10410145;28;20287;-72
2022/07/07 01:42:17;;;;;;;3.13;1.70;;;;;;;7.93;100.00;96965.78;10392181;28;20699;-72
2022/07/07 01:47:21;;;;;;;5.07;1.80;;;;;;;7.97;100.00;96954.09;10409880;28;20293;-72
2022/07/07 01:52:22;;;;;;;3.53;1.60;;;;;;;8.02;100.00;96945.88;10409022;28;20212;-72
2022/07/07 01:57:22;;;;;;;2.27;1.50;;;;;;;8.09;100.00;96954.00;10409566;28;20212;-72
2022/07/07 02:02:22;;;;;;;3.30;1.50;;;;;;;8.11;100.00;96952.91;10409100;28;20279;-72
2022/07/07 02:07:23;;;;;;;3.33;1.60;;;;;;;8.27;100.00;96951.53;10408844;28;20255;-72
2022/07/07 02:12:23;;;;;;;1.40;1.30;;;;;;;8.30;100.00;96935.59;10409337;28;20233;-72
2022/07/07 02:17:23;;;;;;;5.23;1.50;;;;;;;8.38;100.00;96935.75;10409169;28;20247;-72
2022/07/07 02:22:24;;;;;;;6.50;1.87;;;;;;;8.46;100.00;96928.09;10391507;28;20196;-72
2022/07/07 02:27:24;;;;;;;3.50;1.50;;;;;;;8.53;100.00;96929.19;10408795;28;20323;-72
2022/07/07 02:32:24;;;;;;;7.13;2.07;;;;;;;8.64;100.00;96920.38;10408891;28;20205;-72
2022/07/07 02:37:25;;;;;;;5.13;1.57;;;;;;;8.68;100.00;96927.00;10408971;28;20242;-72
2022/07/07 02:42:25;;;;;;;3.30;1.30;;;;;;;8.78;100.00;96921.75;10408638;28;20193;-72
2022/07/07 02:47:26;;;;;;;3.40;1.27;;;;;;;8.81;100.00;96913.63;10408480;28;20314;-72
2022/07/07 02:52:26;;;;;;;5.50;1.50;;;;;;;8.86;100.00;96911.41;10408457;28;20193;-72
2022/07/07 02:57:27;;;;;;;7.20;1.40;;;;;;;8.96;100.00;96903.56;10404556;28;20203;-72
2022/07/07 03:02:27;;;;;;;1.37;1.27;;;;;;;9.08;100.00;96899.81;10411341;28;20311;-73
2022/07/07 03:07:27;;;;;;;4.03;1.27;;;;;;;9.16;100.00;96904.31;10453970;28;20216;-72
2022/07/07 03:12:28;;;;;;;4.33;1.40;;;;;;;9.23;100.00;96894.97;10452017;28;20212;-72
2022/07/07 03:17:28;;;;;;;3.10;1.40;;;;;;;9.28;100.00;96899.75;10452827;28;20199;-73
2022/07/07 03:22:28;;;;;;;3.13;1.63;;;;;;;9.35;100.00;96889.53;10450926;28;20187;-72
2022/07/07 03:27:29;;;;;;;3.20;1.57;;;;;;;9.43;100.00;96882.63;10449711;28;20311;-72
2022/07/07 03:32:30;;;;;;;1.50;1.30;;;;;;;9.56;100.00;96874.41;10453137;28;20521;-72
2022/07/07 03:37:32;;;;;;;2.50;1.20;;;;;;;9.64;100.00;96869.28;10434033;28;20941;-73
2022/07/07 03:42:33;;;;;;;3.40;1.30;;;;;;;9.88;100.00;96870.53;10451802;28;20200;-73
2022/07/07 03:47:34;;;;;;;3.60;1.53;;;;;;;9.94;100.00;96887.44;10450777;28;20278;-73
2022/07/07 03:52:34;;;;;;;2.30;1.20;;;;;;;9.93;100.00;96894.44;10450535;28;20196;-74
2022/07/07 03:57:35;;;;;;;2.03;1.33;;;;;;;9.79;100.00;96908.03;10449915;28;20204;-73
2022/07/07 04:02:36;;;;;;;4.20;1.30;;;;;;;9.57;100.00;96904.84;10451645;28;20254;-73
2022/07/07 04:07:36;;;;;;;3.17;1.57;;;;;;;9.71;100.00;96903.53;10454271;28;20226;-74
2022/07/07 04:12:37;;;;;;;4.50;1.60;;;;;;;9.83;100.00;96901.50;10453733;28;20558;-74
2022/07/07 04:17:37;;;;;;;4.43;1.50;;;;;;;9.91;100.00;96906.84;10453829;28;20198;-75
2022/07/07 04:22:38;;;;;;;2.43;1.43;;;;;;;9.88;100.00;96901.09;10436113;28;20184;-75
2022/07/07 04:27:38;;;;;;;4.10;1.77;;;;;;;9.81;100.00;96908.69;10453850;28;20687;-75
2022/07/07 04:32:38;;;;;;;3.73;1.70;;;;;;;9.82;100.00;96897.28;10453520;28;20199;-75
2022/07/07 04:37:39;;;;;;;4.90;1.90;;;;;;;9.73;100.00;96901.59;10453646;28;20188;-75
2022/07/07 04:42:39;;;;;;;3.70;1.80;;;;;;;9.73;100.00;96896.34;10452864;28;20187;-75
2022/07/07 04:47:40;;;;;;;2.90;1.93;;;;;;;9.68;100.00;96897.75;10453123;28;20208;-75
2022/07/07 04:52:41;;;;;;;3.10;1.93;;;;;;;9.75;100.00;96893.59;10434802;28;20652;-75
2022/07/07 04:57:41;;;;;;;3.20;1.87;;;;;;;9.84;100.00;96903.16;10434717;28;20188;-75
2022/07/07 05:02:42;;;;;;;4.80;2.30;;;;;;;9.87;100.00;96904.69;10452148;28;20227;-75
2022/07/07 05:07:42;;;;;;;5.33;2.10;;;;;;;9.88;100.00;96906.34;10451772;28;20592;-75
2022/07/07 05:12:42;;;;;;;4.67;2.20;;;;;;;9.82;100.00;96897.28;10451947;28;20656;-75
2022/07/07 05:17:43;;;;;;;3.50;2.10;;;;;;;9.80;100.00;96901.81;10451558;28;20184;-75
2022/07/07 05:22:43;;;;;;;4.27;2.10;;;;;;;9.83;100.00;96901.50;10452052;28;20656;-75
2022/07/07 05:27:44;;;;;;;3.50;2.03;;;;;;;9.79;100.00;96902.81;10450724;28;20822;-75
2022/07/07 05:32:45;;;;;;;3.27;2.40;;;;;;;9.82;100.00;96892.84;10451300;28;20862;-74
2022/07/07 05:37:46;;;;;;;3.63;2.40;;;;;;;9.82;100.00;96886.81;10451606;28;20196;-75
2022/07/07 05:42:46;;;;;;;5.30;2.50;;;;;;;9.99;100.00;96882.56;10450868;28;20187;-75
2022/07/07 05:47:47;;;;;;;3.67;2.40;;;;;;;10.20;100.00;96873.59;10451255;28;20223;-74
2022/07/07 05:52:47;;;;;;;5.57;2.50;;;;;;;10.33;100.00;96887.16;10450689;28;20189;-74
2022/07/07 05:57:47;;;;;;;4.90;1.90;;;;;;;10.46;100.00;96881.53;10451265;28;20193;-74
2022/07/07 06:02:48;;;;;;;5.27;2.33;;;;;;;10.50;100.00;96862.72;10450406;28;20358;-74
2022/07/07 06:07:49;;;;;;;3.87;1.83;;;;;;;10.78;100.00;96867.03;10422612;28;20220;-74
2022/07/07 06:12:49;;;;;;;4.10;1.90;;;;;;;10.95;100.00;96865.31;10388610;28;20376;-73
2022/07/07 06:17:49;;;;;;;2.07;1.83;;;;;;;11.11;100.00;96862.81;10407925;28;20271;-75
2022/07/07 06:22:50;;;;;;;2.30;1.80;;;;;;;11.29;100.00;96856.66;10409522;28;20271;-73
2022/07/07 06:27:50;;;;;;;3.40;1.70;;;;;;;11.51;100.00;96847.41;10408927;28;20573;-74
2022/07/07 06:32:50;;;;;;;6.80;1.80;;;;;;;11.68;100.00;96835.97;10409083;28;20197;-74
2022/07/07 06:37:52;;;;;;;5.10;1.93;;;;;;;11.86;100.00;96829.78;10412013;28;20195;-73
2022/07/07 06:42:53;;;;;;;3.70;2.17;;;;;;;12.06;100.00;96825.06;10416607;28;20710;-73
2022/07/07 06:48:00;;;;;;;1.75;1.65;;;;;;;12.10;100.00;96834.28;10398639;28;20221;-73
2022/07/07 06:53:00;;;;;;;3.40;1.52;;;;;;;12.22;100.00;96813.75;10411690;28;20200;-74
2022/07/07 06:58:02;;;;;;;3.70;1.73;;;;;;;12.07;100.00;96817.03;10414868;28;20311;-73
2022/07/07 07:03:03;;;;;;;2.50;1.33;;;;;;;12.28;100.00;96813.09;10413806;28;20240;-73
2022/07/07 07:08:04;;;;;;;6.10;1.50;;;;;;;12.36;100.00;96822.75;10414128;28;20232;-74
2022/07/07 07:13:04;;;;;;;5.90;1.60;;;;;;;12.17;100.00;96811.59;10413711;28;20200;-73
2022/07/07 07:18:06;;;;;;;3.33;1.90;;;;;;;12.14;100.00;96814.56;10414058;28;20289;-73
2022/07/07 07:23:06;;;;;;;4.82;2.10;;;;;;;12.00;100.00;96821.28;10396736;28;20196;-73
2022/07/07 07:28:07;;;;;;;3.90;2.35;;;;;;;11.81;100.00;96817.13;10413817;28;20225;-73
2022/07/07 07:33:07;;;;;;;2.80;1.85;;;;;;;11.82;100.00;96816.13;10412968;28;20188;-73
2022/07/07 07:38:08;;;;;;;3.92;2.20;;;;;;;12.00;100.00;96816.03;10394860;28;20196;-73
2022/07/07 07:43:08;;;;;;;6.30;2.50;;;;;;;12.28;100.00;96803.41;10412598;28;20239;-73
2022/07/07 07:48:08;;;;;;;3.60;1.70;;;;;;;12.48;100.00;96800.41;10412127;28;20225;-72
2022/07/07 07:53:09;;;;;;;3.08;2.28;;;;;;;12.27;100.00;96796.50;10413358;28;20196;-73
2022/07/07 07:58:10;;;;;;;6.05;2.40;;;;;;;12.01;100.00;96811.63;10412775;28;20184;-73
2022/07/07 08:03:10;;;;;;;8.10;3.20;;;;;;;11.83;100.00;96804.66;10412496;28;20243;-73
2022/07/07 08:08:10;;;;;;;4.10;3.42;;;;;;;11.80;100.00;96804.19;10411473;28;20223;-73
2022/07/07 08:13:11;;;;;;;7.13;3.55;;;;;;;11.96;100.00;96798.97;10410780;28;20196;-74
2022/07/07 08:18:11;;;;;;;5.10;3.08;;;;;;;11.98;100.00;96793.56;10393444;28;20185;-73
2022/07/07 08:23:12;;;;;;;7.43;2.78;;;;;;;11.93;100.00;96799.31;10411387;28;20217;-73
2022/07/07 08:28:12;;;;;;;5.57;3.10;;;;;;;11.89;100.00;96795.31;10411045;28;20308;-74
2022/07/07 08:33:12;;;;;;;3.67;3.28;;;;;;;11.99;100.00;96796.03;10411577;28;20205;-74
2022/07/07 08:38:13;;;;;;;3.55;3.25;;;;;;;12.06;100.00;96778.63;10411079;28;20193;-74
2022/07/07 08:43:14;;;;;;;6.22;3.50;;;;;;;12.26;100.00;96783.53;10411229;28;20224;-73
2022/07/07 08:48:14;;;;;;;4.43;3.38;;;;;;;12.78;100.00;96783.13;10392743;28;20212;-73
2022/07/07 08:53:15;;;;;;;5.55;3.90;;;;;;;12.70;100.00;96780.53;10410459;28;20197;-73
2022/07/07 08:58:16;;;;;;;5.30;3.92;;;;;;;12.98;100.00;96780.09;10392730;28;20196;-73
2022/07/07 09:03:16;;;;;;;5.38;3.95;;;;;;;12.92;100.00;96783.41;10408869;28;20633;-73
2022/07/07 09:08:18;;;;;;;4.57;3.95;;;;;;;13.17;100.00;96779.72;10410399;28;20314;-72
2022/07/07 09:13:19;;;;;;;7.15;4.07;;;;;;;13.12;100.00;96779.38;10408763;28;20279;-72
2022/07/07 09:18:37;;;;;;;5.55;4.00;;;;;;;13.43;100.00;96780.44;10410067;28;20712;-73
2022/07/07 09:23:54;;;;;;;4.65;4.00;;;;;;;13.63;100.00;96775.53;10408908;28;20192;-72
2022/07/07 09:28:58;;;;;;;4.68;4.28;;;;;;;13.80;100.00;96776.25;10391948;28;20220;-74
2022/07/07 09:34:12;;;;;;;7.13;3.70;;;;;;;14.57;100.00;96781.38;10409089;28;20192;-73
2022/07/07 09:39:13;;;;;;;6.22;4.78;;;;;;;13.78;100.00;96781.69;10393762;28;20185;-73
2022/07/07 09:44:13;;;;;;;4.38;3.97;;;;;;;14.09;100.00;96783.47;10391907;28;20197;-73
2022/07/07 09:49:13;;;;;;;8.95;5.60;;;;;;;13.66;100.00;96785.72;10409436;28;20224;-74
2022/07/07 09:54:15;;;;;;;5.45;4.95;;;;;;;13.67;100.00;96775.03;10390266;28;20208;-73
2022/07/07 09:59:19;;;;;;;6.05;5.55;;;;;;;13.91;100.00;96792.47;10408002;28;20225;-74
2022/07/07 10:04:22;;;;;;;9.85;6.50;;;;;;;13.28;100.00;96804.81;10408289;28;20382;-74
2022/07/07 10:09:25;;;;;;;7.28;6.57;;;;;;;12.91;100.00;96808.91;10390455;28;20231;-73
2022/07/07 10:14:32;;;;;;;6.90;6.25;;;;;;;12.92;100.00;96807.88;10413460;28;20285;-75
2022/07/07 10:19:32;;;;;;;5.70;5.15;;;;;;;13.17;100.00;96806.03;10398486;28;20193;-75
2022/07/07 10:24:33;;;;;;;4.55;4.15;;;;;;;13.12;100.00;96797.00;10415857;28;20197;-75
2022/07/07 10:29:49;;;;;;;6.35;4.28;;;;;;;13.31;100.00;96808.94;10398234;28;20311;-75
2022/07/07 10:34:54;;;;;;;5.18;4.00;;;;;;;13.28;100.00;96796.13;10415927;28;20798;-76
2022/07/07 10:39:56;;;;;;;3.78;3.40;;;;;;;13.30;100.00;96799.38;10396702;28;20645;-75
2022/07/07 10:44:57;;;;;;;3.95;2.70;;;;;;;13.24;100.00;96792.19;10413964;28;20266;-75
2022/07/07 10:49:58;;;;;;;2.47;2.10;;;;;;;13.36;100.00;96789.00;10408807;28;20271;-75
2022/07/07 10:55:02;;;;;;;2.90;2.70;;;;;;;14.03;100.00;96789.44;10378363;28;20303;-75
2022/07/07 11:00:09;;;;;;;3.65;2.30;;;;;;;13.63;100.00;96791.34;10413122;28;20261;-75
2022/07/07 11:05:09;;;;;;;2.80;2.08;;;;;;;13.51;100.00;96791.75;10410132;28;20232;-75
2022/07/07 11:10:11;;;;;;;2.53;1.80;;;;;;;13.41;100.00;96791.13;10413258;28;20223;-74
2022/07/07 11:15:14;;;;;;;2.30;2.10;;;;;;;13.26;100.00;96792.81;10414085;28;20204;-74
2022/07/07 11:20:20;;;;;;;2.67;2.47;;;;;;;13.30;100.00;96799.38;10401992;28;20920;-74
2022/07/07 11:25:22;;;;;;;3.53;3.20;;;;;;;13.26;100.00;96801.56;10412623;28;20680;-74
2022/07/07 11:30:23;;;;;;;9.38;3.60;;;;;;;13.52;100.00;96801.28;10412001;28;20259;-74
2022/07/07 11:41:54;;;;;;;5.53;3.63;;;;;;;13.69;100.00;96790.63;10413738;28;20204;-74
2022/07/07 11:46:54;;;;;;;3.88;3.55;;;;;;;13.85;100.00;96801.06;10412532;28;20193;-74
2022/07/07 11:51:54;;;;;;;5.85;4.18;;;;;;;14.44;100.00;96784.66;10395306;28;20571;-74
2022/07/07 11:56:55;;;;;;;4.18;3.78;;;;;;;14.42;100.00;96783.19;10412520;28;20205;-74
2022/07/07 12:01:55;;;;;;;5.30;3.55;;;;;;;14.49;100.00;96781.47;10394571;28;20228;-74
2022/07/07 12:06:56;;;;;;;3.50;3.20;;;;;;;14.79;100.00;96782.34;10410653;28;20691;-75
2022/07/07 12:11:56;;;;;;;4.25;2.65;;;;;;;15.90;100.00;96767.44;10392493;28;20588;-74
2022/07/07 12:16:56;;;;;;;3.00;2.67;;;;;;;15.72;100.00;96770.47;10408950;28;20856;-74
2022/07/07 12:21:57;;;;;;;3.90;3.03;;;;;;;15.13;100.00;96772.22;10408519;28;20557;-73
2022/07/07 12:26:57;;;;;;;3.47;2.50;;;;;;;15.45;100.00;96778.94;10409093;28;20628;-73
2022/07/07 12:31:57;;;;;;;3.15;2.08;;;;;;;15.46;100.00;96772.63;10407855;28;20626;-74
2022/07/07 12:36:58;;;;;;;6.05;2.20;;;;;;;15.78;100.00;96772.41;10408371;28;20587;-74
2022/07/07 12:41:58;;;;;;;2.80;2.60;;;;;;;15.45;100.00;96784.22;10408191;28;20188;-74
2022/07/07 12:46:59;;;;;;;5.60;2.92;;;;;;;15.20;100.00;96783.69;10409988;28;20208;-73
2022/07/07 12:51:59;;;;;;;3.42;3.13;;;;;;;15.14;100.00;96792.34;10409929;28;20283;-73
2022/07/07 12:57:05;;;;;;;4.45;4.05;;;;;;;15.25;100.00;96788.41;10410304;28;20557;-74
2022/07/07 13:02:06;;;;;;;7.75;4.70;;;;;;;14.44;100.00;96791.72;10409439;28;20236;-73
2022/07/07 13:07:07;;;;;;;11.07;4.80;;;;;;;14.89;100.00;96797.09;10409036;28;20219;-73
2022/07/07 13:12:12;;;;;;;9.73;5.50;;;;;;;14.67;100.00;96793.50;10406946;28;20196;-74
2022/07/07 13:17:12;;;;;;;6.40;4.97;;;;;;;14.59;100.00;96791.75;10407659;28;20203;-73
2022/07/07 13:22:13;;;;;;;9.10;6.03;;;;;;;14.43;100.00;96790.09;10407615;28;20184;-73
2022/07/07 13:27:13;;;;;;;6.18;5.18;;;;;;;14.82;100.00;96794.34;10371071;28;20705;-73
2022/07/07 13:32:14;;;;;;;21.27;6.32;;;;;;;14.52;100.00;96796.94;10403815;28;20683;-73
2022/07/07 13:37:14;;;;;;;6.57;4.38;;;;;;;14.67;100.00;96801.44;10385624;28;20180;-73
2022/07/07 13:42:50;;;;;;;4.88;4.13;;;;;;;15.24;100.00;96811.38;10387203;28;20245;-73
2022/07/07 13:47:51;;;;;;;5.50;2.65;;;;;;;15.10;100.00;96807.72;10285156;28;20240;-73
2022/07/07 13:52:51;;;;;;;4.82;2.72;;;;;;;14.44;100.00;96811.00;10406484;28;20216;-73
2022/07/07 13:57:51;;;;;;;2.95;2.70;;;;;;;14.17;100.00;96815.00;10404965;28;20193;-73
2022/07/07 14:02:52;;;;;;;2.90;2.70;;;;;;;14.25;100.00;96822.03;10406290;28;20236;-73
2022/07/07 14:07:52;;;;;;;3.63;3.33;;;;;;;14.13;100.00;96820.81;10388387;28;20306;-73
2022/07/07 14:12:53;;;;;;;5.05;4.55;;;;;;;14.13;100.00;96826.88;10408011;28;20190;-73
2022/07/07 14:17:54;;;;;;;7.10;6.40;;;;;;;14.14;100.00;96815.38;10406944;28;20207;-73
2022/07/07 14:22:54;;;;;;;10.55;8.00;;;;;;;13.78;100.00;96829.09;10408232;28;20199;-73
2022/07/07 14:27:54;;;;;;;12.15;7.50;;;;;;;14.11;100.00;96822.81;10407492;28;20751;-73
2022/07/07 14:32:55;;;;;;;9.13;8.20;;;;;;;14.20;100.00;96812.03;10407555;28;20651;-73
2022/07/07 14:37:55;;;;;;;8.18;7.38;;;;;;;14.17;100.00;96809.75;10407420;28;20274;-73
2022/07/07 14:42:55;;;;;;;6.85;6.20;;;;;;;14.75;100.00;96811.91;10406787;28;20200;-73
2022/07/07 14:47:56;;;;;;;7.47;6.78;;;;;;;14.59;100.00;96811.03;10407166;28;20331;-74
2022/07/07 14:52:56;;;;;;;6.10;5.50;;;;;;;14.85;100.00;96806.34;10406821;28;20193;-73
2022/07/07 14:57:57;;;;;;;5.50;5.10;;;;;;;15.05;100.00;96804.00;10408589;28;20189;-73
2022/07/07 15:02:57;;;;;;;5.47;4.97;;;;;;;15.11;100.00;96805.91;10413397;28;20719;-73
2022/07/07 15:07:58;;;;;;;5.90;5.20;;;;;;;14.97;100.00;96789.09;10413421;28;20587;-73
2022/07/07 15:12:58;;;;;;;6.00;5.50;;;;;;;15.05;100.00;96796.06;10413171;28;20330;-73
2022/07/07 15:17:58;;;;;;;4.13;3.55;;;;;;;17.74;100.00;96769.75;10413605;28;20204;-73
2022/07/07 15:22:59;;;;;;;4.57;2.90;;;;;;;18.30;96.92;96736.81;10413769;28;20196;-73
2022/07/07 15:27:59;;;;;;;3.55;3.25;;;;;;;18.32;95.26;96740.06;10412990;28;20220;-74
2022/07/07 15:32:59;;;;;;;5.40;3.40;;;;;;;17.80;100.00;96762.84;10413712;28;20201;-72
2022/07/07 15:38:00;;;;;;;3.83;3.53;;;;;;;16.59;100.00;96777.34;10412408;28;20280;-72
2022/07/07 15:43:28;;;;;;;3.35;3.10;;;;;;;17.26;100.00;96768.00;10412379;28;20197;-73
2022/07/07 15:48:28;;;;;;;3.15;2.88;;;;;;;16.69;100.00;96761.97;10406430;28;20212;-72
2022/07/07 15:53:29;;;;;;;4.05;2.38;;;;;;;17.63;100.00;96780.94;10407471;28;20193;-73
2022/07/07 15:58:30;;;;;;;2.75;2.55;;;;;;;17.08;100.00;96788.88;10404985;28;20211;-73
2022/07/07 16:03:30;;;;;;;2.67;2.30;;;;;;;16.87;100.00;96792.41;10408602;28;20228;-74
2022/07/07 16:08:31;;;;;;;3.05;2.63;;;;;;;16.57;100.00;96787.31;10387092;28;20272;-73
2022/07/07 16:13:31;;;;;;;2.67;2.47;;;;;;;16.75;100.00;96781.50;10406872;28;20192;-73
2022/07/07 16:18:31;;;;;;;2.80;2.60;;;;;;;16.67;100.00;96785.13;10386436;28;20700;-73
2022/07/07 16:23:32;;;;;;;4.55;3.05;;;;;;;16.40;100.00;96779.66;10405088;28;20578;-72
2022/07/07 16:28:32;;;;;;;3.50;2.92;;;;;;;16.58;100.00;96776.56;10389328;28;20618;-74
2022/07/07 16:33:33;;;;;;;3.20;2.90;;;;;;;16.15;100.00;96768.66;10389263;28;20218;-74
2022/07/07 16:38:34;;;;;;;4.40;3.30;;;;;;;16.39;100.00;96785.94;10405345;28;20200;-76
2022/07/07 16:43:35;;;;;;;3.22;3.00;;;;;;;16.05;100.00;96792.78;10407157;28;20665;-76
2022/07/07 16:48:36;;;;;;;3.72;3.42;;;;;;;15.60;100.00;96793.91;10407017;28;20212;-76
2022/07/07 16:53:36;;;;;;;5.72;3.50;;;;;;;15.51;100.00;96801.13;10406113;28;20210;-76
2022/07/07 16:58:37;;;;;;;4.20;3.80;;;;;;;15.52;100.00;96789.56;10406245;28;20184;-76
2022/07/07 17:03:37;;;;;;;4.60;4.20;;;;;;;15.37;100.00;96791.41;10407043;28;20229;-75
2022/07/07 17:08:38;;;;;;;6.45;5.57;;;;;;;14.80;100.00;96820.09;10404522;28;20220;-76
2022/07/07 17:13:38;;;;;;;6.05;4.70;;;;;;;14.58;100.00;96814.66;10403636;28;20255;-76
2022/07/07 17:18:38;;;;;;;5.00;4.40;;;;;;;14.27;100.00;96820.88;10406271;28;20200;-75
2022/07/07 17:23:39;;;;;;;5.53;4.10;;;;;;;14.33;100.00;96823.78;10403513;28;20204;-75
2022/07/07 17:28:42;;;;;;;4.15;3.75;;;;;;;14.37;100.00;96830.34;10404090;28;20704;-75
2022/07/07 17:33:43;;;;;;;4.47;4.10;;;;;;;14.39;100.00;96829.16;10405082;28;20215;-76
2022/07/07 17:38:43;;;;;;;4.20;3.85;;;;;;;14.59;100.00;96826.88;10403518;28;20195;-75
2022/07/07 17:43:43;;;;;;;4.32;4.00;;;;;;;14.46;100.00;96831.91;10402520;28;20231;-75
2022/07/07 17:48:44;;;;;;;3.85;3.55;;;;;;;14.53;100.00;96839.91;10401988;28;20303;-74
2022/07/07 17:53:44;;;;;;;3.80;3.50;;;;;;;14.29;100.00;96844.41;10404044;28;20246;-74
2022/07/07 17:58:45;;;;;;;3.17;2.88;;;;;;;14.39;100.00;96838.88;10403530;28;20188;-74
2022/07/07 18:03:46;;;;;;;3.65;3.22;;;;;;;14.37;100.00;96836.44;10406048;28;20279;-74
2022/07/07 18:08:46;;;;;;;3.42;3.20;;;;;;;14.34;100.00;96836.78;10405716;28;20358;-73
2022/07/07 18:13:47;;;;;;;5.13;3.85;;;;;;;14.30;100.00;96840.75;10406042;28;20196;-73
2022/07/07 18:18:47;;;;;;;4.15;3.75;;;;;;;14.34;100.00;96846.50;10406237;28;20188;-74
2022/07/07 18:23:48;;;;;;;6.65;3.47;;;;;;;14.47;100.00;96851.97;10402986;28;20532;-74
2022/07/07 18:28:48;;;;;;;4.28;3.33;;;;;;;14.47;100.00;96846.72;10403086;28;20209;-74
2022/07/07 18:33:50;;;;;;;4.28;2.97;;;;;;;14.37;100.00;96859.34;10406335;28;20728;-74
2022/07/07 18:38:51;;;;;;;3.33;3.00;;;;;;;14.32;100.00;96869.56;10412112;28;20224;-73
2022/07/07 18:43:51;;;;;;;4.57;2.90;;;;;;;14.40;100.00;96882.69;10414059;28;20616;-74
2022/07/07 18:48:52;;;;;;;4.22;2.55;;;;;;;14.26;100.00;96881.66;10413026;28;20216;-75
2022/07/07 18:53:52;;;;;;;3.55;2.90;;;;;;;14.25;100.00;96891.34;10412035;28;20188;-74
2022/07/07 18:58:52;;;;;;;6.80;3.35;;;;;;;14.02;100.00;96891.34;10409861;28;20189;-74
2022/07/07 19:03:53;;;;;;;7.28;3.13;;;;;;;14.03;100.00;96902.72;10410072;28;20245;-74
2022/07/07 19:08:53;;;;;;;4.75;3.50;;;;;;;14.06;100.00;96912.91;10411263;28;20216;-74
2022/07/07 19:13:54;;;;;;;7.90;3.70;;;;;;;14.06;100.00;96913.72;10412568;28;20275;-74
2022/07/07 19:18:54;;;;;;;5.90;4.18;;;;;;;14.05;100.00;96917.34;10412302;28;20191;-75
2022/07/07 19:23:55;;;;;;;6.07;4.70;;;;;;;14.06;100.00;96918.19;10411941;28;20200;-75
2022/07/07 19:28:55;;;;;;;9.52;5.60;;;;;;;13.99;100.00;96931.19;10411602;28;20315;-75
2022/07/07 19:33:55;;;;;;;8.82;5.82;;;;;;;14.01;100.00;96939.78;10410457;28;20208;-74
2022/07/07 19:38:57;;;;;;;10.73;6.93;;;;;;;14.00;100.00;96955.75;10411512;28;20730;-74
2022/07/07 19:43:58;;;;;;;11.32;7.15;;;;;;;14.02;100.00;96959.00;10410711;28;20309;-74
2022/07/07 19:48:58;;;;;;;10.38;6.78;;;;;;;14.06;100.00;96963.78;10410786;28;20220;-74
2022/07/07 19:53:58;;;;;;;7.70;6.22;;;;;;;14.09;100.00;96978.41;10410857;28;20531;-74
2022/07/07 19:58:59;;;;;;;7.47;5.68;;;;;;;14.09;100.00;96981.06;10410566;28;20758;-74
2022/07/07 20:03:59;;;;;;;9.52;5.80;;;;;;;14.07;100.00;96986.50;10409617;28;20577;-74
2022/07/07 20:09:00;;;;;;;6.35;5.70;;;;;;;14.07;100.00;96988.28;10410076;28;20281;-74
2022/07/07 20:14:00;;;;;;;5.95;5.03;;;;;;;14.11;100.00;96997.50;10410474;28;20192;-75
2022/07/07 20:19:00;;;;;;;5.95;3.45;;;;;;;14.03;100.00;97010.72;10408544;28;20193;-75
2022/07/07 20:24:01;;;;;;;2.70;2.22;;;;;;;13.84;100.00;97010.13;10393041;28;20184;-75
2022/07/07 20:29:01;;;;;;;5.88;3.13;;;;;;;13.80;100.00;97014.09;10410364;28;20269;-75
2022/07/07 20:34:05;;;;;;;6.88;2.53;;;;;;;13.71;100.00;97030.91;10410560;28;20192;-76
2022/07/07 20:39:06;;;;;;;5.32;2.97;;;;;;;13.57;100.00;97050.84;10410206;28;20636;-75
2022/07/07 20:44:06;;;;;;;3.47;2.63;;;;;;;13.41;100.00;97070.06;10410342;28;20227;-75
2022/07/07 20:49:07;;;;;;;4.93;2.83;;;;;;;13.08;100.00;97093.72;10410167;28;20636;-75
2022/07/07 20:54:07;;;;;;;9.43;4.65;;;;;;;12.77;100.00;97119.78;10409169;28;20197;-76
2022/07/07 20:59:08;;;;;;;14.55;4.90;;;;;;;12.65;100.00;97121.91;10392281;28;20192;-75
2022/07/07 21:04:08;;;;;;;14.30;5.50;;;;;;;12.57;100.00;97133.22;10391708;28;20759;-75
2022/07/07 21:09:09;;;;;;;12.70;4.28;;;;;;;12.35;100.00;97133.78;10409445;28;20707;-75
2022/07/07 21:14:09;;;;;;;11.77;3.83;;;;;;;12.28;100.00;97146.69;10391761;28;20200;-75
2022/07/07 21:19:09;;;;;;;11.98;4.82;;;;;;;12.16;100.00;97146.16;10390728;28;20188;-75
2022/07/07 21:24:10;;;;;;;23.52;5.55;;;;;;;12.12;100.00;97158.75;10409310;28;20195;-75
2022/07/07 21:29:11;;;;;;;15.32;4.45;;;;;;;12.07;100.00;97162.84;10408229;28;20563;-75
2022/07/07 21:34:11;;;;;;;18.55;4.75;;;;;;;12.10;100.00;97176.47;10408602;28;20229;-76
2022/07/07 21:39:12;;;;;;;18.25;5.32;;;;;;;12.09;100.00;97185.34;10408034;28;20192;-75
2022/07/07 21:44:12;;;;;;;23.27;6.18;;;;;;;12.03;100.00;97188.56;10408344;28;20200;-75
2022/07/07 21:49:12;;;;;;;22.40;4.68;;;;;;;11.98;100.00;97203.97;10407817;28;20224;-75
2022/07/07 21:54:13;;;;;;;15.63;4.93;;;;;;;11.96;100.00;97211.19;10408116;28;20284;-75
2022/07/07 21:59:13;;;;;;;16.23;3.95;;;;;;;11.94;100.00;97221.00;10407421;28;20192;-75
2022/07/07 22:09:36;;;;;;;16.35;3.97;;;;;;;11.84;100.00;97243.84;10410624;28;20255;-75
2022/07/07 22:14:38;;;;;;;24.42;4.80;;;;;;;11.79;100.00;97241.69;10414460;28;20203;-75
2022/07/07 22:19:39;;;;;;;17.63;3.28;;;;;;;11.78;100.00;97237.44;10415485;28;20192;-75
2022/07/07 22:24:40;;;;;;;16.42;3.13;;;;;;;11.65;100.00;97235.16;10415420;28;20211;-75
2022/07/07 22:29:40;;;;;;;16.85;3.83;;;;;;;11.70;100.00;97238.19;10415020;28;20223;-74
2022/07/07 22:34:41;;;;;;;16.52;3.47;;;;;;;11.65;100.00;97237.78;10415215;28;20556;-75
2022/07/07 22:39:41;;;;;;;27.35;3.85;;;;;;;11.61;100.00;97246.94;10415233;28;20303;-75
2022/07/07 22:44:41;;;;;;;14.52;3.80;;;;;;;11.58;100.00;97269.06;10414169;28;20196;-74
2022/07/07 22:49:42;;;;;;;15.43;3.50;;;;;;;11.57;100.00;97274.47;10413882;28;20316;-75
2022/07/07 22:54:42;;;;;;;10.43;3.20;;;;;;;11.62;100.00;97274.81;10414401;28;20197;-74
2022/07/07 22:59:43;;;;;;;12.02;2.80;;;;;;;11.55;100.00;97269.38;10412724;28;20211;-74
2022/07/07 23:04:43;;;;;;;10.00;2.85;;;;;;;11.49;100.00;97290.13;10414185;28;20597;-74
2022/07/07 23:09:44;;;;;;;13.20;3.00;;;;;;;11.47;100.00;97284.19;10412369;28;20593;-75
2022/07/07 23:14:44;;;;;;;9.60;2.63;;;;;;;11.37;100.00;97284.25;10414099;28;20195;-74
2022/07/07 23:19:44;;;;;;;14.95;3.50;;;;;;;11.41;100.00;97286.44;10412149;28;20192;-74